Map

Track Data

SID SEASON NUMBER BASIN SUBBASIN NAME ISO_TIME NATURE LAT LON WMO_WIND WMO_PRES WMO_AGENCY TRACK_TYPE DIST2LAND LANDFALL IFLAG USA_AGENCY USA_ATCF_ID USA_LAT USA_LON USA_RECORD USA_STATUS USA_WIND USA_PRES USA_SSHS USA_R34_NE USA_R34_SE USA_R34_SW USA_R34_NW USA_R50_NE USA_R50_SE USA_R50_SW USA_R50_NW USA_R64_NE USA_R64_SE USA_R64_SW USA_R64_NW USA_POCI USA_ROCI USA_RMW USA_EYE TOKYO_LAT TOKYO_LON TOKYO_GRADE TOKYO_WIND TOKYO_PRES TOKYO_R50_DIR TOKYO_R50_LONG TOKYO_R50_SHORT TOKYO_R30_DIR TOKYO_R30_LONG TOKYO_R30_SHORT TOKYO_LAND CMA_LAT CMA_LON CMA_CAT CMA_WIND CMA_PRES HKO_LAT HKO_LON HKO_CAT HKO_WIND HKO_PRES NEWDELHI_LAT NEWDELHI_LON NEWDELHI_GRADE NEWDELHI_WIND NEWDELHI_PRES NEWDELHI_CI NEWDELHI_DP NEWDELHI_POCI REUNION_LAT REUNION_LON REUNION_TYPE REUNION_WIND REUNION_PRES REUNION_TNUM REUNION_CI REUNION_RMW REUNION_R34_NE REUNION_R34_SE REUNION_R34_SW REUNION_R34_NW REUNION_R50_NE REUNION_R50_SE REUNION_R50_SW REUNION_R50_NW REUNION_R64_NE REUNION_R64_SE REUNION_R64_SW REUNION_R64_NW BOM_LAT BOM_LON BOM_TYPE BOM_WIND BOM_PRES BOM_TNUM BOM_CI BOM_RMW BOM_R34_NE BOM_R34_SE BOM_R34_SW BOM_R34_NW BOM_R50_NE BOM_R50_SE BOM_R50_SW BOM_R50_NW BOM_R64_NE BOM_R64_SE BOM_R64_SW BOM_R64_NW BOM_ROCI BOM_POCI BOM_EYE BOM_POS_METHOD BOM_PRES_METHOD NADI_LAT NADI_LON NADI_CAT NADI_WIND NADI_PRES WELLINGTON_LAT WELLINGTON_LON WELLINGTON_WIND WELLINGTON_PRES DS824_LAT DS824_LON DS824_STAGE DS824_WIND DS824_PRES TD9636_LAT TD9636_LON TD9636_STAGE TD9636_WIND TD9636_PRES TD9635_LAT TD9635_LON TD9635_WIND TD9635_PRES TD9635_ROCI NEUMANN_LAT NEUMANN_LON NEUMANN_CLASS NEUMANN_WIND NEUMANN_PRES MLC_LAT MLC_LON MLC_CLASS MLC_WIND MLC_PRES USA_GUST BOM_GUST BOM_GUST_PER REUNION_GUST REUNION_GUST_PER USA_SEAHGT USA_SEARAD_NE USA_SEARAD_SE USA_SEARAD_SW USA_SEARAD_NW STORM_SPEED STORM_DIR
1981311N08119 1981 102 WP MM NOT_NAMED 1981-11-07 00:00:00 TS 8.00000 119.000 main 149 102 __O___________ -1 8.00000 119.000 0 19 1008 9 301
1981311N08119 1981 102 WP MM NOT_NAMED 1981-11-07 03:00:00 TS 8.24007 118.603 main 102 49 __P___________ -1 8.24007 118.603 0 21 1006 9 302
1981311N08119 1981 102 WP MM NOT_NAMED 1981-11-07 06:00:00 TS 8.50000 118.200 main 49 0 __O___________ -1 8.50000 118.200 1 23 1005 10 305
1981311N08119 1981 102 WP MM NOT_NAMED 1981-11-07 09:00:00 TS 8.79248 117.792 main 0 0 __P___________ -1 8.79248 117.792 1 23 1005 10 307
1981311N08119 1981 102 WP MM NOT_NAMED 1981-11-07 12:00:00 TS 9.10000 117.400 main 24 24 __O___________ -1 9.10000 117.400 1 23 1005 10 310
1981311N08119 1981 102 WP MM NOT_NAMED 1981-11-07 15:00:00 TS 9.40744 117.042 main 78 78 __P___________ -1 9.40744 117.042 1 23 1005 9 311
1981311N08119 1981 102 WP MM NOT_NAMED 1981-11-07 18:00:00 TS 9.70000 116.700 main 125 125 __O___________ -1 9.70000 116.700 1 23 1005 9 310
1981311N08119 1981 102 WP MM NOT_NAMED 1981-11-07 21:00:00 TS 9.97246 116.350 main 180 180 __P___________ -1 9.97246 116.350 1 26 1005 9 306
1981311N08119 1981 102 WP MM NOT_NAMED 1981-11-08 00:00:00 TS 10.2000 116.000 main 219 219 __O___________ -1 10.2000 116.000 1 29 1005 8 300
1981311N08119 1981 102 WP MM NOT_NAMED 1981-11-08 03:00:00 TS 10.3650 115.650 main 267 267 __P___________ -1 10.3650 115.650 1 29 1005 8 294
1981311N08119 1981 102 WP MM NOT_NAMED 1981-11-08 06:00:00 TS 10.5000 115.300 main 300 300 __O___________ -1 10.5000 115.300 1 29 1005 7 293
1981311N08119 1981 102 WP MM NOT_NAMED 1981-11-08 09:00:00 TS 10.6574 114.957 main 340 340 __P___________ -1 10.6574 114.957 1 29 1005 8 294
1981311N08119 1981 102 WP MM NOT_NAMED 1981-11-08 12:00:00 TS 10.8000 114.600 main 382 382 __O___________ -1 10.8000 114.600 1 29 1005 8 288
1981311N08119 1981 102 WP MM NOT_NAMED 1981-11-08 15:00:00 TS 10.9075 114.192 main 425 425 __P___________ -1 10.9075 114.192 1 29 1004 8 284
1981311N08119 1981 102 WP MM NOT_NAMED 1981-11-08 18:00:00 TS 11.0000 113.800 main 468 466 __O___________ -1 11.0000 113.800 1 29 1004 7 289
1981311N08119 1981 102 WP MM NOT_NAMED 1981-11-08 21:00:00 TS 11.1298 113.523 main 466 432 __P___________ -1 11.1298 113.523 1 29 1003 6 289
1981311N08119 1981 102 WP MM NOT_NAMED 1981-11-09 00:00:00 TS 11.2000 113.200 main 432 378 __O___________ -1 11.2000 113.200 1 29 1003 8 273
1981311N08119 1981 102 WP MM NOT_NAMED 1981-11-09 03:00:00 TS 11.1750 112.703 main 378 321 __P___________ -1 11.1750 112.703 1 29 1003 11 260
1981311N08119 1981 102 WP MM NOT_NAMED 1981-11-09 06:00:00 TS 11.0000 112.100 main 321 274 __O___________ -1 11.0000 112.100 1 29 1003 14 246
1981311N08119 1981 102 WP MM NOT_NAMED 1981-11-09 09:00:00 TS 10.6227 111.427 main 269 238 __P___________ -1 10.6227 111.427 1 29 1002 15 238
1981311N08119 1981 102 WP MM NOT_NAMED 1981-11-09 12:00:00 TS 10.2000 110.800 main 238 219 __O___________ -1 10.2000 110.800 1 29 1001 13 236
1981311N08119 1981 102 WP MM NOT_NAMED 1981-11-09 15:00:00 TS 9.91236 110.340 main 220 215 __P___________ -1 9.91236 110.340 1 29 1001 9 237
1981311N08119 1981 102 WP MM NOT_NAMED 1981-11-09 18:00:00 TS 9.72000 110.040 main 219 206 __OO__________ -1 9.70000 110.000 1 29 1001 9.80000 110.200 TD 25 1002 6 243
1981311N08119 1981 102 WP MM NOT_NAMED 1981-11-09 21:00:00 TS 9.64741 109.808 main 215 194 __PP__________ -1 9.51987 109.750 1 29 1001 9.90250 109.923 TD 25 1002 5 263
1981311N08119 1981 102 WP MM NOT_NAMED 1981-11-10 00:00:00 TS 9.65714 109.543 main 187 166 __OO__________ -1 9.40000 109.500 1 29 1001 10.0000 109.600 TD 25 1002 6 274
1981311N08119 1981 102 WP MM NOT_NAMED 1981-11-10 03:00:00 TS 9.69506 109.154 main 166 142 __PP__________ -1 9.29759 109.100 1 26 1002 10.0925 109.207 TD 25 1002 8 277
1981311N08119 1981 102 WP MM NOT_NAMED 1981-11-10 06:00:00 TS 9.75000 108.750 main 133 99 __OO__________ -1 9.30000 108.700 1 23 1003 10.2000 108.800 TD 25 1002 8 285
1981311N08119 1981 102 WP MM NOT_NAMED 1981-11-10 09:00:00 TS 9.88747 108.416 main 99 70 __PP__________ -1 9.43246 108.405 1 23 1003 10.3425 108.428 TD 25 1003 7 301
1981311N08119 1981 102 WP MM NOT_NAMED 1981-11-10 12:00:00 TS 10.1000 108.150 main 70 44 __OO__________ -1 9.70000 108.200 1 23 1003 10.5000 108.100 TD 25 1004 7 316
1981311N08119 1981 102 WP MM NOT_NAMED 1981-11-10 15:00:00 TS 10.3625 107.955 main 33 11 __PP__________ -1 10.0725 108.077 1 21 1004 10.6525 107.833 TD 25 1005 7 328
1981311N08119 1981 102 WP MM NOT_NAMED 1981-11-10 18:00:00 TS 10.6500 107.800 main 0 __OO__________ -1 10.5000 108.000 0 19 1005 10.8000 107.600 TD 25 1006 7 332

Digital Typhoon Data and Search

About IBTrACS Database

This database is a web-friendly format of International Best Track Archive for Climate Stewardship (IBTrACS), a global best track data archive curated by NOAA dating back to 1842.

Updated: 2021-12-03